createdAt,value
2018-12-01T00:01:19.400Z,33.47
2018-12-01T00:03:49.302Z,32.83
2018-12-01T00:06:19.321Z,33.90
2018-12-01T00:08:49.111Z,32.60
2018-12-01T00:11:19.021Z,32.70
2018-12-01T00:13:48.884Z,33.00
2018-12-01T00:16:18.718Z,33.57
2018-12-01T00:18:48.685Z,34.20
2018-12-01T00:21:19.092Z,32.93
2018-12-01T00:23:49.242Z,33.60
2018-12-01T00:26:18.922Z,33.60
2018-12-01T00:28:48.798Z,32.33
2018-12-01T00:31:18.631Z,33.50
2018-12-01T00:33:48.528Z,34.20
2018-12-01T00:36:18.489Z,32.47
2018-12-01T00:38:48.410Z,32.17
2018-12-01T00:41:18.255Z,30.67
2018-12-01T00:43:48.172Z,32.30
2018-12-01T00:46:18.320Z,32.03
2018-12-01T00:48:48.249Z,32.57
2018-12-01T00:51:18.268Z,32.37
2018-12-01T00:53:48.082Z,33.77
2018-12-01T00:56:17.979Z,32.80
2018-12-01T00:58:47.868Z,32.27
2018-12-01T01:01:17.784Z,33.90
2018-12-01T01:03:47.649Z,31.70
2018-12-01T01:06:18.679Z,31.33
2018-12-01T01:08:48.566Z,32.83
2018-12-01T01:11:18.473Z,31.07
2018-12-01T01:13:48.409Z,32.67
2018-12-01T01:16:18.344Z,32.03
2018-12-01T01:18:48.228Z,33.23
2018-12-01T01:21:18.060Z,32.40
2018-12-01T01:23:47.879Z,32.83
2018-12-01T01:26:17.747Z,32.17
2018-12-01T01:28:47.651Z,32.67
2018-12-01T01:31:17.440Z,32.10
2018-12-01T01:33:47.277Z,33.00
2018-12-01T01:36:17.157Z,32.07
2018-12-01T01:38:47.031Z,32.70
2018-12-01T01:41:16.901Z,33.53
2018-12-01T01:43:46.860Z,32.60
2018-12-01T01:46:16.784Z,32.60
2018-12-01T01:48:46.647Z,32.47
2018-12-01T01:51:16.512Z,32.37
2018-12-01T01:53:46.320Z,33.60
2018-12-01T01:56:16.192Z,33.13
2018-12-01T01:58:46.092Z,32.27
2018-12-01T02:01:15.902Z,33.57
2018-12-01T02:03:45.800Z,33.73
2018-12-01T02:06:15.696Z,32.67
2018-12-01T02:08:45.548Z,35.13
2018-12-01T02:11:15.300Z,34.20
2018-12-01T02:13:45.204Z,35.20
2018-12-01T02:16:15.088Z,35.33
2018-12-01T02:18:44.976Z,34.87
2018-12-01T02:21:14.848Z,35.97
2018-12-01T02:23:44.685Z,35.13
2018-12-01T02:26:14.508Z,34.70
2018-12-01T02:28:44.400Z,35.53
2018-12-01T02:31:14.238Z,35.47
2018-12-01T02:33:44.140Z,35.97
2018-12-01T02:36:14.109Z,36.43
2018-12-01T02:38:44.003Z,35.60
2018-12-01T02:41:13.825Z,36.23
2018-12-01T02:43:43.795Z,37.00
2018-12-01T02:46:24.417Z,35.73
2018-12-01T02:48:54.326Z,34.87
2018-12-01T02:51:24.181Z,36.83
2018-12-01T02:53:53.997Z,35.30
2018-12-01T02:56:23.909Z,36.60
2018-12-01T02:58:53.703Z,36.23
2018-12-01T03:01:23.539Z,35.33
2018-12-01T03:03:53.435Z,37.10
2018-12-01T03:06:23.336Z,36.50
2018-12-01T03:08:53.388Z,37.27
2018-12-01T03:11:23.137Z,35.27
2018-12-01T03:13:52.932Z,34.40
2018-12-01T03:16:22.752Z,35.57
2018-12-01T03:18:52.651Z,34.93
2018-12-01T03:21:22.432Z,34.80
2018-12-01T03:23:52.608Z,35.17
2018-12-01T03:26:22.440Z,33.97
2018-12-01T03:28:53.508Z,35.03
2018-12-01T03:31:23.281Z,34.90
2018-12-01T03:33:53.401Z,33.77
2018-12-01T03:36:23.209Z,33.73
2018-12-01T03:38:53.256Z,34.67
2018-12-01T03:41:23.017Z,32.83
2018-12-01T03:43:52.805Z,32.37
2018-12-01T03:46:22.651Z,35.03
2018-12-01T03:48:52.488Z,33.40
2018-12-01T03:51:22.280Z,33.30
2018-12-01T03:53:52.056Z,33.27
2018-12-01T03:56:21.940Z,33.80
2018-12-01T03:58:51.740Z,32.63
2018-12-01T04:01:21.480Z,32.43
2018-12-01T04:03:51.368Z,33.27
2018-12-01T04:06:21.190Z,33.07
2018-12-01T04:08:51.210Z,33.47
2018-12-01T04:11:21.357Z,34.73
2018-12-01T04:13:51.704Z,33.00
2018-12-01T04:16:21.539Z,34.87
2018-12-01T04:18:51.340Z,32.80
2018-12-01T04:21:21.070Z,48.43
2018-12-01T04:23:51.307Z,35.27
2018-12-01T04:26:22.286Z,33.73
2018-12-01T04:28:52.618Z,33.07
2018-12-01T04:31:22.219Z,34.33
2018-12-01T04:33:51.919Z,33.70
2018-12-01T04:36:22.040Z,35.50
2018-12-01T04:38:51.908Z,34.47
2018-12-01T04:41:21.688Z,48.07
2018-12-01T04:43:51.531Z,38.33
2018-12-01T04:46:21.413Z,35.00
2018-12-01T04:48:51.232Z,34.20
2018-12-01T04:51:21.906Z,33.43
2018-12-01T04:53:51.634Z,33.33
2018-12-01T04:56:21.598Z,33.60
2018-12-01T04:58:51.683Z,34.97
2018-12-01T05:01:21.807Z,33.57
2018-12-01T05:03:51.771Z,35.23
2018-12-01T05:06:21.849Z,35.20
2018-12-01T05:08:52.399Z,34.83
2018-12-01T05:11:22.617Z,34.10
2018-12-01T05:13:52.416Z,34.73
2018-12-01T05:16:22.687Z,33.83
2018-12-01T05:18:52.510Z,35.70
2018-12-01T05:21:22.176Z,34.73
2018-12-01T05:23:51.908Z,34.67
2018-12-01T05:26:21.737Z,35.50
2018-12-01T05:28:52.443Z,35.37
2018-12-01T05:31:23.066Z,35.57
2018-12-01T05:33:52.711Z,35.73
2018-12-01T05:36:23.024Z,35.53
2018-12-01T05:38:52.720Z,35.87
2018-12-01T05:41:23.737Z,34.43
2018-12-01T05:43:53.880Z,35.30
2018-12-01T05:46:23.867Z,35.13
2018-12-01T05:48:53.643Z,35.90
2018-12-01T05:51:24.670Z,35.07
2018-12-01T05:53:55.440Z,36.50
2018-12-01T05:56:25.259Z,35.77
2018-12-01T05:58:55.633Z,34.93
2018-12-01T06:01:25.333Z,36.83
2018-12-01T06:03:55.434Z,35.73
2018-12-01T06:06:25.151Z,35.90
2018-12-01T06:08:54.946Z,36.23
2018-12-01T06:11:25.261Z,38.13
2018-12-01T06:13:54.992Z,37.00
2018-12-01T06:16:24.796Z,38.53
2018-12-01T06:18:55.421Z,39.33
2018-12-01T06:21:25.204Z,39.07
2018-12-01T06:23:55.004Z,49.40
2018-12-01T06:26:24.951Z,40.63
2018-12-01T06:28:54.731Z,39.50
2018-12-01T06:31:24.418Z,39.43
2018-12-01T06:33:54.196Z,40.23
2018-12-01T06:36:24.002Z,40.27
2018-12-01T06:38:54.843Z,39.70
2018-12-01T06:41:24.643Z,38.03
2018-12-01T06:43:55.343Z,38.37
2018-12-01T06:46:25.172Z,37.57
2018-12-01T06:48:55.001Z,39.63
2018-12-01T06:51:24.752Z,39.23
2018-12-01T06:53:54.493Z,39.67
2018-12-01T06:56:24.701Z,40.13
2018-12-01T06:58:54.530Z,38.97
2018-12-01T07:01:24.595Z,38.73
2018-12-01T07:03:54.293Z,38.03
2018-12-01T07:06:24.462Z,39.80
2018-12-01T07:08:54.680Z,38.47
2018-12-01T07:11:24.364Z,41.60
2018-12-01T07:13:54.134Z,39.73
2018-12-01T07:16:24.321Z,40.57
2018-12-01T07:19:19.157Z,41.80
2018-12-01T07:21:49.552Z,40.63
2018-12-01T07:24:19.304Z,39.90
2018-12-01T07:26:49.162Z,41.07
2018-12-01T07:29:19.026Z,41.87
2018-12-01T07:31:48.987Z,39.93
2018-12-01T07:34:18.819Z,39.80
2018-12-01T07:36:48.906Z,41.50
2018-12-01T07:39:19.436Z,41.67
2018-12-01T07:41:49.362Z,41.93
2018-12-01T07:44:19.444Z,42.23
2018-12-01T07:46:49.528Z,41.70
2018-12-01T07:49:19.368Z,42.17
2018-12-01T07:51:50.328Z,40.87
2018-12-01T07:54:20.123Z,39.60
2018-12-01T07:56:49.869Z,41.07
2018-12-01T07:59:19.828Z,40.67
2018-12-01T08:01:50.304Z,41.90
2018-12-01T08:04:20.696Z,42.33
2018-12-01T08:06:50.509Z,39.80
2018-12-01T08:09:20.853Z,40.07
2018-12-01T08:11:51.057Z,41.17
2018-12-01T08:14:21.281Z,40.00
2018-12-01T08:16:51.289Z,41.83
2018-12-01T08:19:21.474Z,40.63
2018-12-01T08:21:51.094Z,41.67
2018-12-01T08:24:21.366Z,40.83
2018-12-01T08:26:51.156Z,42.93
2018-12-01T08:29:21.179Z,40.57
2018-12-01T08:31:50.898Z,40.03
2018-12-01T08:34:20.647Z,40.87
2018-12-01T08:36:50.392Z,40.67
2018-12-01T08:39:20.107Z,40.43
2018-12-01T08:41:50.875Z,42.13
2018-12-01T08:44:20.647Z,41.10
2018-12-01T08:46:51.516Z,40.83
2018-12-01T08:49:22.522Z,43.10
2018-12-01T08:51:52.251Z,41.67
2018-12-01T08:54:22.522Z,41.50
2018-12-01T08:56:52.817Z,42.83
2018-12-01T08:59:23.452Z,41.33
2018-12-01T09:01:53.738Z,42.27
2018-12-01T09:04:23.544Z,42.57
2018-12-01T09:06:53.913Z,42.20
2018-12-01T09:09:23.690Z,41.53
2018-12-01T09:11:53.585Z,41.43
2018-12-01T09:14:23.388Z,41.70
2018-12-01T09:16:53.344Z,41.67
2018-12-01T09:19:23.424Z,42.17
2018-12-01T09:21:54.065Z,42.00
2018-12-01T09:24:24.193Z,41.50
2018-12-01T09:26:54.078Z,39.90
2018-12-01T09:29:24.410Z,42.93
2018-12-01T09:31:54.402Z,42.20
2018-12-01T09:34:24.532Z,42.60
2018-12-01T09:36:54.323Z,42.27
2018-12-01T09:39:24.472Z,42.37
2018-12-01T09:41:54.640Z,42.57
2018-12-01T09:44:24.737Z,43.47
2018-12-01T09:46:54.571Z,40.47
2018-12-01T09:49:24.689Z,42.03
2018-12-01T09:51:54.728Z,43.17
2018-12-01T09:54:24.940Z,42.40
2018-12-01T09:56:54.835Z,42.10
2018-12-01T09:59:25.069Z,43.90
2018-12-01T10:01:55.611Z,41.67
2018-12-01T10:04:25.486Z,42.70
2018-12-01T10:06:55.728Z,42.57
2018-12-01T10:09:25.941Z,42.23
2018-12-01T10:11:55.752Z,42.40
2018-12-01T10:14:25.729Z,42.07
2018-12-01T10:16:55.668Z,43.03
2018-12-01T10:19:25.833Z,42.87
2018-12-01T10:21:55.778Z,43.23
2018-12-01T10:24:25.898Z,43.47
2018-12-01T10:26:56.034Z,42.13
2018-12-01T10:29:25.923Z,41.30
2018-12-01T10:31:55.791Z,43.50
2018-12-01T10:34:25.700Z,44.60
2018-12-01T10:36:55.843Z,43.77
2018-12-01T10:39:26.501Z,43.30
2018-12-01T10:41:56.291Z,42.17
2018-12-01T10:44:26.591Z,43.07
2018-12-01T10:46:57.120Z,43.90
2018-12-01T10:49:26.963Z,45.73
2018-12-01T10:51:57.728Z,43.17
2018-12-01T10:54:29.004Z,41.20
2018-12-01T10:56:58.915Z,41.67
2018-12-01T10:59:29.213Z,41.57
2018-12-01T11:02:04.232Z,42.63
2018-12-01T11:04:40.250Z,42.73
2018-12-01T11:07:10.169Z,43.03
2018-12-01T11:09:40.310Z,42.53
2018-12-01T11:12:10.440Z,42.03
2018-12-01T11:14:40.694Z,41.97
2018-12-01T11:17:10.617Z,41.70
2018-12-01T11:19:40.499Z,42.53
2018-12-01T11:22:10.357Z,44.10
2018-12-01T11:24:40.277Z,42.33
2018-12-01T11:27:10.077Z,42.43
2018-12-01T11:29:39.994Z,42.73
2018-12-01T11:32:09.911Z,42.40
2018-12-01T11:34:40.056Z,42.20
2018-12-01T11:37:09.968Z,42.33
2018-12-01T11:39:40.924Z,42.60
2018-12-01T11:42:10.833Z,41.90
2018-12-01T11:44:41.129Z,41.50
2018-12-01T11:47:11.386Z,41.97
2018-12-01T11:49:42.026Z,42.90
2018-12-01T11:52:13.080Z,43.07
2018-12-01T11:54:43.788Z,43.80
2018-12-01T11:57:13.670Z,42.03
2018-12-01T11:59:43.713Z,42.00
2018-12-01T12:02:13.804Z,43.57
2018-12-01T12:04:44.810Z,45.97
2018-12-01T12:07:25.497Z,42.53
2018-12-01T12:09:55.428Z,49.53
2018-12-01T12:12:29.805Z,44.50
2018-12-01T12:14:59.760Z,41.97
2018-12-01T12:17:30.054Z,55.20
2018-12-01T12:19:59.929Z,45.40
2018-12-01T12:22:30.646Z,43.93
2018-12-01T12:25:01.030Z,44.87
2018-12-01T12:27:31.766Z,43.87
2018-12-01T12:30:02.080Z,50.47
2018-12-01T12:32:32.347Z,44.50
2018-12-01T12:35:02.491Z,43.70
2018-12-01T12:37:33.438Z,48.27
2018-12-01T12:40:03.271Z,43.73
2018-12-01T12:42:34.707Z,45.20
2018-12-01T12:45:05.009Z,44.83
2018-12-01T12:47:36.300Z,42.40
2018-12-01T12:50:08.512Z,45.33
2018-12-01T12:52:38.424Z,42.80
2018-12-01T12:55:10.850Z,43.97
2018-12-01T12:57:41.048Z,43.70
2018-12-01T13:00:16.038Z,43.77
2018-12-01T13:02:47.783Z,43.83
2018-12-01T13:05:24.180Z,44.13
2018-12-01T13:07:54.968Z,43.70
2018-12-01T13:10:26.066Z,43.03
2018-12-01T13:12:56.916Z,43.40
2018-12-01T13:15:27.674Z,42.50
2018-12-01T13:17:57.822Z,43.97
2018-12-01T13:20:27.972Z,43.13
2018-12-01T13:22:59.941Z,43.77
2018-12-01T13:25:30.372Z,42.43
2018-12-01T13:28:07.229Z,55.40
2018-12-01T13:30:42.520Z,49.30
2018-12-01T13:33:12.862Z,45.10
2018-12-01T13:35:42.971Z,44.73
2018-12-01T13:38:12.843Z,42.53
2018-12-01T13:40:42.996Z,44.63
2018-12-01T13:43:13.058Z,52.77
2018-12-01T13:45:43.572Z,44.87
2018-12-01T13:48:13.421Z,43.70
2018-12-01T13:50:43.297Z,43.63
2018-12-01T13:53:14.187Z,43.17
2018-12-01T13:55:44.162Z,49.17
2018-12-01T13:58:14.809Z,56.40
2018-12-01T14:00:45.807Z,45.67
2018-12-01T14:03:15.967Z,43.93
2018-12-01T14:05:45.982Z,43.43
2018-12-01T14:08:15.872Z,41.93
2018-12-01T14:10:47.861Z,44.77
2018-12-01T14:13:17.792Z,44.13
2018-12-01T14:15:48.408Z,44.13
2018-12-01T14:18:18.299Z,43.67
2018-12-01T14:20:48.132Z,44.00
2018-12-01T14:23:18.343Z,47.93
2018-12-01T14:25:49.137Z,42.77
2018-12-01T14:28:20.052Z,45.10
2018-12-01T14:30:49.948Z,45.33
2018-12-01T14:33:20.310Z,43.70
2018-12-01T14:35:50.551Z,43.93
2018-12-01T14:38:20.652Z,44.63
2018-12-01T14:40:51.066Z,44.73
2018-12-01T14:43:21.654Z,46.47
2018-12-01T14:45:51.928Z,43.97
2018-12-01T14:48:21.765Z,46.13
2018-12-01T14:50:52.077Z,43.93
2018-12-01T14:53:21.942Z,45.23
2018-12-01T14:55:52.137Z,44.97
2018-12-01T14:58:22.102Z,44.70
2018-12-01T15:00:52.853Z,46.17
2018-12-01T15:03:22.808Z,43.80
2018-12-01T15:05:52.957Z,45.70
2018-12-01T15:08:22.874Z,44.37
2018-12-01T15:10:52.788Z,43.83
2018-12-01T15:13:23.832Z,45.23
2018-12-01T15:15:53.613Z,44.03
2018-12-01T15:18:23.498Z,45.10
2018-12-01T15:20:53.599Z,47.50
2018-12-01T15:23:23.912Z,48.17
2018-12-01T15:25:53.932Z,46.73
2018-12-01T15:28:23.856Z,44.90
2018-12-01T15:30:54.518Z,47.63
2018-12-01T15:33:24.794Z,47.30
2018-12-01T15:35:54.741Z,45.50
2018-12-01T15:38:24.806Z,45.57
2018-12-01T15:40:55.015Z,48.17
2018-12-01T15:43:25.713Z,47.73
2018-12-01T15:45:55.791Z,48.10
2018-12-01T15:48:25.719Z,48.20
2018-12-01T15:50:56.436Z,51.27
2018-12-01T15:53:26.815Z,47.70
2018-12-01T15:55:57.168Z,50.47
2018-12-01T15:58:27.496Z,49.50
2018-12-01T16:00:57.927Z,48.57
2018-12-01T16:03:27.902Z,50.03
2018-12-01T16:05:57.815Z,48.07
2018-12-01T16:08:29.719Z,47.90
2018-12-01T16:10:59.587Z,49.97
2018-12-01T16:13:29.521Z,50.63
2018-12-01T16:16:06.459Z,46.90
2018-12-01T16:18:36.437Z,48.53
2018-12-01T16:21:08.590Z,49.20
2018-12-01T16:23:38.506Z,49.17
2018-12-01T16:26:08.707Z,49.80
2018-12-01T16:28:39.153Z,47.83
2018-12-01T16:31:09.276Z,49.00
2018-12-01T16:33:39.646Z,49.70
2018-12-01T16:36:10.090Z,50.73
2018-12-01T16:38:39.926Z,47.50
2018-12-01T16:41:28.152Z,48.20
2018-12-01T16:43:57.952Z,47.97
2018-12-01T16:46:29.618Z,49.93
2018-12-01T16:49:00.344Z,47.70
2018-12-01T16:51:31.397Z,50.40
2018-12-01T16:54:01.617Z,49.23
2018-12-01T16:56:31.616Z,49.03
2018-12-01T16:59:01.562Z,48.37
2018-12-01T17:01:32.054Z,49.80
2018-12-01T17:04:02.364Z,48.53
2018-12-01T17:06:32.209Z,48.90
2018-12-01T17:09:02.363Z,49.83
2018-12-01T17:11:33.001Z,51.13
2018-12-01T17:14:02.806Z,50.87
2018-12-01T17:16:32.795Z,49.87
2018-12-01T17:19:02.791Z,48.30
2018-12-01T17:21:32.919Z,49.63
2018-12-01T17:24:03.485Z,50.63
2018-12-01T17:26:33.386Z,49.97
2018-12-01T17:29:03.281Z,49.37
2018-12-01T17:31:33.545Z,50.93
2018-12-01T17:34:03.476Z,52.70
2018-12-01T17:36:33.418Z,53.27
2018-12-01T17:39:03.561Z,54.33
2018-12-01T17:41:33.441Z,53.57
2018-12-01T17:44:06.583Z,53.83
2018-12-01T17:46:36.819Z,53.43
2018-12-01T17:49:07.612Z,54.87
2018-12-01T17:51:37.466Z,53.73
2018-12-01T17:54:12.860Z,53.03
2018-12-01T17:56:43.744Z,52.67
2018-12-01T17:59:13.800Z,54.33
2018-12-01T18:01:43.680Z,52.97
2018-12-01T18:04:14.556Z,55.17
2018-12-01T18:06:44.840Z,56.67
2018-12-01T18:09:15.736Z,56.80
2018-12-01T18:11:45.979Z,54.83
2018-12-01T18:14:16.208Z,55.73
2018-12-01T18:16:46.359Z,55.33
2018-12-01T18:19:16.362Z,54.50
2018-12-01T18:21:46.311Z,54.47
2018-12-01T18:24:16.202Z,54.87
2018-12-01T18:26:46.134Z,55.67
2018-12-01T18:29:17.580Z,58.57
2018-12-01T18:31:48.231Z,58.63
2018-12-01T18:34:18.080Z,58.73
2018-12-01T18:36:49.226Z,61.53
2018-12-01T18:39:20.028Z,58.53
2018-12-01T18:41:49.856Z,57.97
2018-12-01T18:44:20.324Z,59.63
2018-12-01T18:46:51.207Z,64.53
2018-12-01T18:49:22.464Z,62.67
2018-12-01T18:51:53.147Z,59.33
2018-12-01T18:54:24.279Z,57.70
2018-12-01T18:56:54.308Z,57.87
2018-12-01T18:59:24.537Z,56.77
2018-12-01T19:01:55.087Z,56.23
2018-12-01T19:04:25.062Z,57.07
2018-12-01T19:06:55.125Z,53.97
2018-12-01T19:09:25.289Z,54.20
2018-12-01T19:11:55.152Z,53.93
2018-12-01T19:14:25.080Z,52.50
2018-12-01T19:16:55.620Z,52.83
2018-12-01T19:19:26.077Z,52.77
2018-12-01T19:21:56.321Z,52.63
2018-12-01T19:24:26.261Z,51.77
2018-12-01T19:26:56.241Z,53.27
2018-12-01T19:29:26.143Z,52.20
2018-12-01T19:31:56.806Z,53.43
2018-12-01T19:34:28.139Z,54.57
2018-12-01T19:36:58.200Z,52.07
2018-12-01T19:39:28.162Z,50.47
2018-12-01T19:41:57.941Z,49.90
2018-12-01T19:44:27.807Z,50.30
2018-12-01T19:46:58.247Z,52.57
2018-12-01T19:49:28.144Z,52.57
2018-12-01T19:51:58.316Z,52.33
2018-12-01T19:54:28.447Z,52.43
2018-12-01T19:56:58.337Z,58.70
2018-12-01T19:59:28.405Z,57.17
2018-12-01T20:01:58.287Z,53.07
2018-12-01T20:04:28.163Z,52.40
2018-12-01T20:06:59.153Z,52.50
2018-12-01T20:09:29.397Z,53.33
2018-12-01T20:11:59.719Z,62.63
2018-12-01T20:14:29.796Z,81.70
2018-12-01T20:16:59.768Z,59.63
2018-12-01T20:19:29.920Z,56.47
2018-12-01T20:21:59.715Z,54.37
2018-12-01T20:24:29.968Z,54.73
2018-12-01T20:27:00.550Z,52.53
2018-12-01T20:29:30.832Z,52.23
2018-12-01T20:32:01.219Z,51.40
2018-12-01T20:34:31.730Z,55.27
2018-12-01T20:37:04.706Z,53.53
2018-12-01T20:39:37.403Z,51.97
2018-12-01T20:42:07.338Z,53.83
2018-12-01T20:44:37.424Z,57.23
2018-12-01T20:47:07.409Z,52.43
2018-12-01T20:49:37.601Z,51.67
2018-12-01T20:52:08.065Z,52.17
2018-12-01T20:54:42.820Z,52.50
2018-12-01T20:57:29.147Z,54.27
2018-12-01T20:59:59.202Z,52.30
2018-12-01T21:02:29.268Z,53.07
2018-12-01T21:04:59.425Z,56.30
2018-12-01T21:07:29.359Z,51.70
2018-12-01T21:09:59.241Z,54.43
2018-12-01T21:12:29.122Z,55.37
2018-12-01T21:14:59.047Z,56.50
2018-12-01T21:17:28.911Z,58.63
2018-12-01T21:19:58.813Z,58.60
2018-12-01T21:22:28.794Z,57.77
2018-12-01T21:24:58.586Z,57.97
2018-12-01T21:27:28.463Z,60.23
2018-12-01T21:29:58.313Z,54.13
2018-12-01T21:32:28.180Z,53.77
2018-12-01T21:34:58.062Z,55.33
2018-12-01T21:37:27.999Z,55.40
2018-12-01T21:39:57.835Z,53.50
2018-12-01T21:42:27.791Z,54.07
2018-12-01T21:44:57.695Z,54.03
2018-12-01T21:47:27.478Z,52.03
2018-12-01T21:49:57.253Z,52.70
2018-12-01T21:52:27.138Z,55.37
2018-12-01T21:54:57.456Z,53.10
2018-12-01T21:57:28.100Z,55.63
2018-12-01T21:59:57.808Z,54.33
2018-12-01T22:02:28.149Z,54.87
2018-12-01T22:04:58.827Z,57.70
2018-12-01T22:07:29.022Z,55.03
2018-12-01T22:09:58.773Z,54.90
2018-12-01T22:12:28.549Z,55.73
2018-12-01T22:14:59.526Z,53.57
2018-12-01T22:17:29.341Z,54.03
2018-12-01T22:19:59.204Z,53.80
2018-12-01T22:22:29.030Z,52.23
2018-12-01T22:24:59.091Z,52.90
2018-12-01T22:27:28.888Z,53.47
2018-12-01T22:29:59.395Z,53.03
2018-12-01T22:32:30.820Z,53.77
2018-12-01T22:35:01.072Z,51.93
2018-12-01T22:37:30.989Z,51.77
2018-12-01T22:40:01.304Z,53.07
2018-12-01T22:42:33.959Z,54.47
2018-12-01T22:45:03.753Z,54.47
2018-12-01T22:47:34.611Z,52.47
2018-12-01T22:50:06.377Z,53.93
2018-12-01T22:52:36.205Z,54.47
2018-12-01T22:55:08.127Z,52.60
2018-12-01T22:57:38.258Z,53.80
2018-12-01T23:00:20.468Z,52.73
2018-12-01T23:02:51.617Z,53.37
2018-12-01T23:05:22.161Z,52.27
2018-12-01T23:07:52.900Z,53.13
2018-12-01T23:10:23.502Z,53.43
2018-12-01T23:12:53.798Z,54.50
2018-12-01T23:15:23.879Z,57.20
2018-12-01T23:17:54.740Z,57.87
2018-12-01T23:20:26.312Z,52.27
2018-12-01T23:22:57.069Z,52.40
2018-12-01T23:25:26.931Z,53.83
2018-12-01T23:27:56.781Z,55.30
2018-12-01T23:30:28.316Z,52.33
2018-12-01T23:33:00.348Z,52.47
2018-12-01T23:35:31.528Z,52.90
2018-12-01T23:38:01.451Z,52.33
2018-12-01T23:40:33.253Z,53.93
2018-12-01T23:43:03.410Z,52.83
2018-12-01T23:45:33.962Z,52.13
2018-12-01T23:48:04.668Z,56.20
2018-12-01T23:50:33.725Z,53.67
2018-12-01T23:53:06.325Z,54.17
2018-12-01T23:55:36.141Z,52.23
2018-12-01T23:58:06.156Z,52.60
